Time;durP1;ratioP1;P1;durP2;ratioP2;P2;SDS_P1;SDS_P2;PMS_P1;PMS_P2;Temp;Humidity;BMP_temperature;BMP_pressure;BME280_temperature;BME280_humidity;BME280_pressure;Samples;Min_cycle;Max_cycle;Signal;HPM_P1;HPM_P2
2022/05/12 00:00:45;;;;;;;23.42;21.25;;;;;;;14.71;100.00;98764.63;2025850;29;20232;-72
2022/05/12 00:01:47;;;;;;;22.33;18.60;;;;;;;14.85;100.00;98764.31;2026114;29;20833;-72
2022/05/12 00:02:49;;;;;;;20.23;18.58;;;;;;;15.02;100.00;98774.13;2033651;29;20207;-72
2022/05/12 00:03:49;;;;;;;20.50;18.70;;;;;;;15.19;100.00;98773.94;2041993;29;20214;-72
2022/05/12 00:04:52;;;;;;;23.87;21.43;;;;;;;15.30;100.00;98766.25;2042024;29;20191;-72
2022/05/12 00:05:54;;;;;;;21.20;19.33;;;;;;;15.31;100.00;98770.50;2041681;29;20199;-72
2022/05/12 00:06:55;;;;;;;19.10;17.70;;;;;;;15.32;100.00;98762.09;2042018;29;20234;-73
2022/05/12 00:07:58;;;;;;;19.93;18.20;;;;;;;15.33;100.00;98773.63;2041320;29;20646;-73
2022/05/12 00:08:59;;;;;;;18.85;17.27;;;;;;;15.35;100.00;98774.06;2041524;29;20568;-72
2022/05/12 00:10:01;;;;;;;19.23;17.40;;;;;;;15.45;100.00;98776.31;2040744;29;20294;-72
2022/05/12 00:11:02;;;;;;;20.20;18.10;;;;;;;15.57;100.00;98776.34;2041431;29;20231;-72
2022/05/12 00:12:05;;;;;;;19.83;17.95;;;;;;;15.73;100.00;98781.88;2032730;29;20227;-72
2022/05/12 00:13:08;;;;;;;20.73;18.73;;;;;;;15.83;100.00;98776.81;2033881;29;20199;-73
2022/05/12 00:14:10;;;;;;;19.80;18.23;;;;;;;15.88;100.00;98772.31;2033446;29;20206;-73
2022/05/12 00:15:14;;;;;;;19.67;18.17;;;;;;;15.93;100.00;98780.19;2033637;29;20248;-72
2022/05/12 00:16:17;;;;;;;25.35;22.63;;;;;;;15.97;100.00;98770.28;2041986;29;20278;-73
2022/05/12 00:17:18;;;;;;;19.38;17.88;;;;;;;16.00;100.00;98785.78;2041957;29;20191;-73
2022/05/12 00:18:20;;;;;;;19.63;18.03;;;;;;;16.04;100.00;98783.97;2041533;29;20282;-73
2022/05/12 00:19:22;;;;;;;19.80;18.10;;;;;;;16.07;100.00;98765.25;2041339;29;20686;-72
2022/05/12 00:20:25;;;;;;;19.50;17.73;;;;;;;16.10;100.00;98764.56;2042012;29;20190;-73
2022/05/12 00:21:25;;;;;;;23.35;20.85;;;;;;;16.13;100.00;98768.47;2032489;29;20223;-73
2022/05/12 00:22:29;;;;;;;20.53;18.93;;;;;;;16.11;100.00;98757.28;2033730;29;20238;-72
2022/05/12 00:23:30;;;;;;;21.58;19.50;;;;;;;16.07;100.00;98757.19;2042127;29;20218;-73
2022/05/12 00:24:31;;;;;;;19.50;17.90;;;;;;;16.01;100.00;98760.44;2041958;29;20194;-72
2022/05/12 00:25:33;;;;;;;24.58;21.98;;;;;;;15.96;100.00;98753.38;2041957;29;20218;-72
2022/05/12 00:26:38;;;;;;;20.33;18.67;;;;;;;15.88;100.00;98758.88;2040503;29;20756;-72
2022/05/12 00:27:39;;;;;;;22.08;20.13;;;;;;;15.78;100.00;98743.97;2032921;29;20254;-71
2022/05/12 00:28:40;;;;;;;21.53;19.67;;;;;;;15.75;100.00;98752.72;2033363;29;20199;-72
2022/05/12 00:29:43;;;;;;;20.27;18.42;;;;;;;15.73;100.00;98755.75;2041903;29;20747;-73
2022/05/12 00:30:47;;;;;;;20.77;19.27;;;;;;;15.74;100.00;98757.31;2041938;29;20685;-73
2022/05/12 00:31:50;;;;;;;20.85;19.33;;;;;;;15.74;100.00;98754.63;2042039;29;20207;-72
2022/05/12 00:32:52;;;;;;;21.17;19.20;;;;;;;15.77;100.00;98750.47;2041898;29;20332;-72
2022/05/12 00:33:54;;;;;;;22.25;20.27;;;;;;;15.77;100.00;98753.16;2042169;29;20183;-73
2022/05/12 00:34:55;;;;;;;22.75;20.88;;;;;;;15.74;100.00;98745.78;2041909;29;20198;-72
2022/05/12 00:36:00;;;;;;;21.60;19.80;;;;;;;15.64;100.00;98747.03;2041369;29;20231;-72
2022/05/12 00:37:01;;;;;;;19.48;17.80;;;;;;;15.55;100.00;98741.72;2032700;29;20216;-72
2022/05/12 00:38:03;;;;;;;20.83;19.03;;;;;;;15.54;100.00;98742.03;2033341;29;20231;-72
2022/05/12 00:39:04;;;;;;;22.60;20.30;;;;;;;15.51;100.00;98748.09;2041253;29;20207;-72
2022/05/12 00:40:09;;;;;;;21.05;19.08;;;;;;;15.51;100.00;98748.09;2041882;29;20195;-72
2022/05/12 00:41:11;;;;;;;22.63;20.27;;;;;;;15.45;100.00;98744.06;2041923;29;20242;-72
2022/05/12 00:42:13;;;;;;;22.50;20.27;;;;;;;15.39;100.00;98743.50;2041877;29;20191;-72
2022/05/12 00:43:39;;;;;;;21.25;19.63;;;;;;;15.34;100.00;98743.72;2041997;29;20198;-72
2022/05/12 00:44:41;;;;;;;22.73;20.65;;;;;;;15.31;100.00;98743.63;2041929;29;20653;-72
2022/05/12 00:45:42;;;;;;;24.05;21.83;;;;;;;15.28;100.00;98743.16;2041963;29;20205;-72
2022/05/12 00:46:49;;;;;;;21.85;20.17;;;;;;;15.21;100.00;98739.47;2042025;29;20554;-72
2022/05/12 00:47:52;;;;;;;24.35;22.25;;;;;;;15.17;100.00;98736.66;2041260;29;20657;-72
2022/05/12 00:48:56;;;;;;;22.17;20.17;;;;;;;15.14;100.00;98742.69;2033396;29;20192;-72
2022/05/12 00:49:57;;;;;;;20.45;18.65;;;;;;;15.15;100.00;98741.56;2033846;29;20199;-72
2022/05/12 00:50:59;;;;;;;22.70;20.63;;;;;;;15.15;100.00;98733.50;2039925;29;20227;-73
2022/05/12 00:52:06;;;;;;;20.92;19.15;;;;;;;15.17;100.00;98742.03;2041427;29;20512;-72
2022/05/12 00:53:09;;;;;;;20.00;18.35;;;;;;;15.23;100.00;98738.00;2042135;29;20193;-73
2022/05/12 00:54:14;;;;;;;20.75;18.92;;;;;;;15.26;100.00;98740.00;2041861;29;20195;-72
2022/05/12 00:55:17;;;;;;;20.70;19.20;;;;;;;15.26;100.00;98741.91;2033302;29;20211;-72
2022/05/12 00:56:21;;;;;;;24.05;22.00;;;;;;;15.28;100.00;98737.78;2033773;29;20244;-72
2022/05/12 00:57:25;;;;;;;23.10;20.95;;;;;;;15.28;100.00;98739.69;2041133;29;20202;-73
2022/05/12 00:58:32;;;;;;;20.25;18.65;;;;;;;15.23;100.00;98740.69;2040161;29;20218;-72
2022/05/12 00:59:35;;;;;;;21.02;18.77;;;;;;;15.23;100.00;98738.00;2041753;29;20686;-72
2022/05/12 01:00:36;;;;;;;21.08;19.23;;;;;;;15.24;100.00;98744.94;2041930;29;20206;-72
2022/05/12 01:01:39;;;;;;;23.27;20.95;;;;;;;15.25;100.00;98737.66;2041160;29;20250;-72
2022/05/12 01:02:45;;;;;;;21.15;19.10;;;;;;;15.19;100.00;98737.09;2041063;29;20203;-73
2022/05/12 01:03:48;;;;;;;19.60;17.92;;;;;;;15.17;100.00;98739.34;2033276;29;20206;-72
2022/05/12 01:04:55;;;;;;;20.40;18.83;;;;;;;15.18;100.00;98746.28;2033618;29;20204;-72
2022/05/12 01:05:57;;;;;;;20.40;18.52;;;;;;;15.22;100.00;98735.66;2041375;29;20186;-73
2022/05/12 01:06:58;;;;;;;20.90;18.98;;;;;;;15.26;100.00;98742.69;2042058;29;20234;-72
2022/05/12 01:08:01;;;;;;;20.50;18.70;;;;;;;15.34;100.00;98751.78;2041754;29;20662;-72
2022/05/12 01:09:03;;;;;;;20.35;18.75;;;;;;;15.39;100.00;98748.88;2041123;29;20203;-73
2022/05/12 01:10:06;;;;;;;21.17;19.40;;;;;;;15.46;100.00;98748.31;2041271;29;20285;-72
2022/05/12 01:11:13;;;;;;;19.17;17.73;;;;;;;15.46;100.00;98742.94;2032425;29;20686;-72
2022/05/12 01:12:16;;;;;;;21.05;18.98;;;;;;;15.48;100.00;98746.88;2032425;29;20196;-72
2022/05/12 01:13:17;;;;;;;21.95;18.90;;;;;;;15.50;100.00;98747.31;2033491;29;20196;-72
2022/05/12 01:14:19;;;;;;;20.08;18.25;;;;;;;15.51;100.00;98750.78;2041731;29;20191;-73
2022/05/12 01:15:24;;;;;;;21.20;19.27;;;;;;;15.52;100.00;98750.44;2042003;29;20657;-72
2022/05/12 01:16:40;;;;;;;19.52;17.90;;;;;;;15.46;100.00;98742.94;2033268;29;20195;-72
2022/05/12 01:17:43;;;;;;;19.75;18.10;;;;;;;15.43;100.00;98744.41;2035599;29;20248;-72
2022/05/12 01:18:48;;;;;;;21.52;19.30;;;;;;;15.39;100.00;98740.03;2041926;29;20270;-72
2022/05/12 01:19:51;;;;;;;21.45;19.15;;;;;;;15.28;100.00;98731.63;2041684;29;20547;-73
2022/05/12 01:20:53;;;;;;;19.58;17.90;;;;;;;15.19;100.00;98731.72;2041276;29;20198;-73
2022/05/12 01:21:57;;;;;;;22.90;20.80;;;;;;;15.13;100.00;98726.91;2041965;29;20631;-73
2022/05/12 01:23:00;;;;;;;20.08;18.20;;;;;;;15.06;100.00;98732.03;2041712;29;20609;-72
2022/05/12 01:24:03;;;;;;;19.58;17.92;;;;;;;15.01;100.00;98727.66;2041758;29;20246;-72
2022/05/12 01:25:11;;;;;;;19.27;17.55;;;;;;;15.04;100.00;98727.00;2041097;29;20686;-72
2022/05/12 01:26:14;;;;;;;21.25;19.40;;;;;;;15.06;100.00;98724.78;2048718;29;20202;-72
2022/05/12 01:27:20;;;;;;;21.75;19.85;;;;;;;15.06;100.00;98727.44;2048574;29;20262;-73
2022/05/12 01:28:22;;;;;;;20.58;18.77;;;;;;;15.05;100.00;98725.09;2033176;29;20218;-72
2022/05/12 01:29:23;;;;;;;19.33;17.80;;;;;;;15.06;100.00;98732.03;2033332;29;20223;-72
2022/05/12 01:30:28;;;;;;;19.80;18.38;;;;;;;15.07;100.00;98725.56;2041682;29;20673;-72
2022/05/12 01:31:31;;;;;;;20.40;18.60;;;;;;;15.10;100.00;98732.94;2040724;29;20207;-72
2022/05/12 01:32:33;;;;;;;19.90;18.20;;;;;;;15.13;100.00;98730.38;2041153;29;20196;-73
2022/05/12 01:33:35;;;;;;;20.00;18.23;;;;;;;15.16;100.00;98720.88;2041603;29;20234;-72
2022/05/12 01:34:38;;;;;;;19.48;18.02;;;;;;;15.18;100.00;98729.38;2033303;29;20286;-72
2022/05/12 01:35:38;;;;;;;20.13;18.52;;;;;;;15.19;100.00;98723.66;2025540;29;20200;-72
2022/05/12 01:36:43;;;;;;;22.80;20.47;;;;;;;15.18;100.00;98727.47;2033028;29;20258;-72
2022/05/12 01:37:45;;;;;;;22.40;20.30;;;;;;;15.09;100.00;98717.94;2041677;29;20199;-73
2022/05/12 01:38:48;;;;;;;20.33;18.63;;;;;;;14.99;100.00;98713.78;2033862;29;20255;-72
2022/05/12 01:39:53;;;;;;;19.77;18.10;;;;;;;14.97;100.00;98724.09;2034806;29;20283;-72
2022/05/12 01:40:55;;;;;;;19.40;17.73;;;;;;;15.00;100.00;98728.78;2043224;29;20214;-72
2022/05/12 01:41:56;;;;;;;20.27;18.63;;;;;;;15.02;100.00;98731.91;2042424;29;20202;-72
2022/05/12 01:43:02;;;;;;;19.33;17.60;;;;;;;15.05;100.00;98725.88;2042447;29;20682;-72
2022/05/12 01:44:05;;;;;;;19.60;17.75;;;;;;;15.06;100.00;98722.09;2042793;29;20283;-72
2022/05/12 01:45:07;;;;;;;19.25;17.52;;;;;;;15.09;100.00;98729.47;2042370;29;20218;-72
2022/05/12 01:46:10;;;;;;;19.10;17.55;;;;;;;15.09;100.00;98721.41;2042468;29;20203;-72
2022/05/12 01:47:14;;;;;;;19.60;17.65;;;;;;;15.13;100.00;98730.38;2043033;29;20680;-73
2022/05/12 01:48:17;;;;;;;18.45;17.15;;;;;;;15.14;100.00;98723.88;2033821;29;20228;-72
2022/05/12 01:49:17;;;;;;;19.15;17.65;;;;;;;15.14;100.00;98723.88;2034804;29;20250;-72
2022/05/12 01:50:23;;;;;;;18.43;17.23;;;;;;;15.13;100.00;98722.31;2034475;29;20207;-72
2022/05/12 01:51:26;;;;;;;18.60;17.27;;;;;;;15.14;100.00;98728.47;2034749;29;20263;-72
2022/05/12 01:52:28;;;;;;;18.45;17.02;;;;;;;15.15;100.00;98730.03;2041427;29;20670;-72
2022/05/12 01:53:30;;;;;;;19.63;17.83;;;;;;;15.18;100.00;98727.47;2042452;29;20246;-72
2022/05/12 01:54:33;;;;;;;20.73;18.90;;;;;;;15.17;100.00;98719.75;2042989;29;20191;-71
2022/05/12 01:55:36;;;;;;;18.15;16.80;;;;;;;15.15;100.00;98724.66;2034450;29;20212;-72
2022/05/12 01:56:37;;;;;;;18.38;16.88;;;;;;;15.13;100.00;98722.31;2034553;29;20612;-72
2022/05/12 01:57:42;;;;;;;17.98;16.67;;;;;;;15.19;100.00;98737.09;2042916;29;20198;-72
2022/05/12 01:58:45;;;;;;;18.25;16.65;;;;;;;15.33;100.00;98736.78;2042985;29;20181;-72
2022/05/12 01:59:48;;;;;;;18.40;16.80;;;;;;;15.37;100.00;98724.22;2042883;29;20219;-72
2022/05/12 02:00:50;;;;;;;17.33;15.93;;;;;;;15.37;100.00;98728.81;2042945;29;20219;-72
2022/05/12 02:01:51;;;;;;;18.10;16.30;;;;;;;15.42;100.00;98734.75;2043132;29;20598;-71
2022/05/12 02:02:52;;;;;;;16.97;15.67;;;;;;;15.46;100.00;98733.00;2041978;29;20211;-72
2022/05/12 02:03:54;;;;;;;17.15;15.90;;;;;;;15.51;100.00;98732.75;2041853;29;20210;-72
2022/05/12 02:04:57;;;;;;;16.73;15.45;;;;;;;15.55;100.00;98727.50;2042478;29;20694;-72
2022/05/12 02:05:58;;;;;;;19.08;17.48;;;;;;;15.55;100.00;98722.13;2033891;29;20247;-72
2022/05/12 02:07:02;;;;;;;18.50;16.90;;;;;;;15.47;100.00;98723.81;2034306;29;20199;-72
2022/05/12 02:08:05;;;;;;;18.58;16.70;;;;;;;15.46;100.00;98726.81;2042916;29;20195;-72
2022/05/12 02:09:07;;;;;;;18.50;16.65;;;;;;;15.43;100.00;98719.41;2034387;29;20199;-71
2022/05/12 02:10:09;;;;;;;17.73;16.33;;;;;;;15.40;100.00;98730.84;2034560;29;20203;-71
2022/05/12 02:11:13;;;;;;;21.73;19.60;;;;;;;15.41;100.00;98719.75;2042857;29;20202;-72
2022/05/12 02:12:16;;;;;;;17.88;16.63;;;;;;;15.37;100.00;98718.84;2042871;29;20222;-72
2022/05/12 02:13:20;;;;;;;22.58;20.17;;;;;;;15.33;100.00;98715.28;2043092;29;20191;-72
2022/05/12 02:14:21;;;;;;;21.35;19.05;;;;;;;15.18;100.00;98703.28;2042198;29;20233;-72
2022/05/12 02:15:26;;;;;;;22.67;20.33;;;;;;;15.07;100.00;98706.75;2042315;29;20192;-71
2022/05/12 02:16:27;;;;;;;19.25;17.55;;;;;;;14.94;100.00;98708.59;2043089;29;20196;-72
2022/05/12 02:17:28;;;;;;;21.63;19.58;;;;;;;14.90;100.00;98713.88;2043027;29;20198;-72
2022/05/12 02:18:30;;;;;;;21.83;19.92;;;;;;;14.84;100.00;98703.66;2042833;29;20198;-72
2022/05/12 02:19:32;;;;;;;23.77;21.48;;;;;;;14.68;100.00;98701.63;2042837;29;20221;-72
2022/05/12 02:20:35;;;;;;;22.73;20.42;;;;;;;14.53;100.00;98699.56;2042110;29;20203;-72
2022/05/12 02:21:36;;;;;;;21.05;19.23;;;;;;;14.41;100.00;98700.25;2049033;29;20234;-73
2022/05/12 02:22:38;;;;;;;22.70;20.60;;;;;;;14.34;100.00;98700.03;2049455;29;20210;-72
2022/05/12 02:23:38;;;;;;;22.10;20.23;;;;;;;14.29;100.00;98697.53;2042233;29;20443;-71
2022/05/12 02:24:40;;;;;;;21.60;19.67;;;;;;;14.21;100.00;98697.59;2042846;29;20657;-71
2022/05/12 02:25:42;;;;;;;21.92;19.67;;;;;;;14.16;100.00;98701.28;2042777;29;20222;-72
2022/05/12 02:26:46;;;;;;;20.55;18.80;;;;;;;14.07;100.00;98693.31;2034157;29;20211;-71
2022/05/12 02:27:49;;;;;;;22.02;19.85;;;;;;;14.00;100.00;98701.09;2034484;29;20616;-72
2022/05/12 02:28:51;;;;;;;23.42;21.27;;;;;;;13.94;100.00;98704.28;2034047;29;20203;-71
2022/05/12 02:29:52;;;;;;;22.50;20.45;;;;;;;13.84;100.00;98700.09;2034487;29;20619;-72
2022/05/12 02:30:54;;;;;;;21.07;19.37;;;;;;;13.77;100.00;98702.50;2042056;29;20234;-71
2022/05/12 02:31:56;;;;;;;18.70;17.30;;;;;;;13.79;100.00;98700.28;2042128;29;20195;-71
2022/05/12 02:33:00;;;;;;;19.70;18.00;;;;;;;13.80;100.00;98699.94;2033248;29;20204;-71
2022/05/12 02:34:01;;;;;;;19.15;17.50;;;;;;;13.85;100.00;98704.34;2034586;29;20203;-71
2022/05/12 02:35:03;;;;;;;21.40;19.63;;;;;;;13.92;100.00;98704.63;2042908;29;20202;-71
2022/05/12 02:36:04;;;;;;;18.83;17.25;;;;;;;14.00;100.00;98708.34;2042197;29;20195;-72
2022/05/12 02:37:08;;;;;;;23.02;20.73;;;;;;;13.99;100.00;98704.88;2041752;29;20229;-72
2022/05/12 02:38:11;;;;;;;22.67;20.48;;;;;;;13.98;100.00;98702.50;2033572;29;20386;-71
2022/05/12 02:39:12;;;;;;;22.90;20.60;;;;;;;13.90;100.00;98701.47;2034712;29;20207;-71
2022/05/12 02:40:16;;;;;;;21.70;19.60;;;;;;;13.77;100.00;98700.59;2042712;29;20235;-71
2022/05/12 02:41:17;;;;;;;18.25;16.85;;;;;;;13.75;100.00;98704.72;2034089;29;20459;-71
2022/05/12 02:42:21;;;;;;;22.27;20.37;;;;;;;13.71;100.00;98701.91;2034314;29;20275;-71
2022/05/12 02:43:25;;;;;;;18.15;16.55;;;;;;;13.66;100.00;98698.66;2042607;29;20195;-71
2022/05/12 02:44:26;;;;;;;21.98;19.98;;;;;;;13.65;100.00;98703.22;2033798;29;20592;-71
2022/05/12 02:45:28;;;;;;;25.98;17.70;;;;;;;13.68;100.00;98693.72;2034296;29;20236;-72
2022/05/12 02:46:30;;;;;;;17.73;16.40;;;;;;;13.67;100.00;98702.88;2041306;29;20199;-71
2022/05/12 02:47:31;;;;;;;20.27;18.38;;;;;;;13.71;100.00;98703.78;2042041;29;20282;-71
2022/05/12 02:48:34;;;;;;;21.67;19.60;;;;;;;13.73;100.00;98701.59;2034075;29;20196;-71
2022/05/12 02:49:36;;;;;;;17.30;16.00;;;;;;;13.67;100.00;98709.03;2034424;29;20196;-71
2022/05/12 02:50:38;;;;;;;20.42;18.45;;;;;;;13.64;100.00;98700.84;2042734;29;20657;-71
2022/05/12 02:51:38;;;;;;;21.65;19.27;;;;;;;13.56;100.00;98699.81;2042176;29;20591;-71
2022/05/12 02:52:40;;;;;;;20.63;18.63;;;;;;;13.50;100.00;98696.50;2041192;29;20290;-71
2022/05/12 02:53:43;;;;;;;20.75;18.77;;;;;;;13.43;100.00;98690.88;2041849;29;20198;-71
2022/05/12 02:54:47;;;;;;;21.02;18.85;;;;;;;13.39;100.00;98687.28;2042038;29;20195;-71
2022/05/12 02:55:48;;;;;;;18.58;16.60;;;;;;;13.36;100.00;98690.59;2042511;29;20202;-71
2022/05/12 02:56:52;;;;;;;20.85;18.77;;;;;;;13.33;100.00;98690.47;2041933;29;20286;-71
2022/05/12 02:57:54;;;;;;;16.70;15.40;;;;;;;13.30;100.00;98694.56;2041942;29;20195;-71
2022/05/12 02:58:56;;;;;;;23.15;19.52;;;;;;;13.29;100.00;98706.38;2033960;29;20200;-72
2022/05/12 02:59:56;;;;;;;22.02;19.83;;;;;;;13.25;100.00;98697.44;2034261;29;20212;-70
2022/05/12 03:00:58;;;;;;;25.97;20.13;;;;;;;13.22;100.00;98696.19;2034028;29;20291;-72
2022/05/12 03:01:59;;;;;;;21.33;19.52;;;;;;;13.21;100.00;98693.84;2026243;29;20200;-71
2022/05/12 03:03:02;;;;;;;24.48;21.58;;;;;;;13.20;100.00;98702.94;2033631;29;20200;-71
2022/05/12 03:04:05;;;;;;;22.75;20.67;;;;;;;13.16;100.00;98708.16;2033553;29;20687;-71
2022/05/12 03:05:09;;;;;;;25.83;22.77;;;;;;;13.12;100.00;98707.22;2034345;29;20196;-71
2022/05/12 03:06:10;;;;;;;19.13;17.30;;;;;;;13.15;100.00;98703.13;2042075;29;20230;-71
2022/05/12 03:07:12;;;;;;;19.53;17.57;;;;;;;13.14;100.00;98705.00;2033996;29;20256;-71
2022/05/12 03:08:13;;;;;;;20.83;19.05;;;;;;;13.16;100.00;98700.09;2026086;29;20479;-71
2022/05/12 03:09:14;;;;;;;23.93;21.30;;;;;;;13.19;100.00;98698.66;2033872;29;20257;-72
2022/05/12 03:10:17;;;;;;;23.92;21.52;;;;;;;13.21;100.00;98699.97;2036025;29;20264;-72
2022/05/12 03:11:19;;;;;;;24.25;21.88;;;;;;;13.19;100.00;98691.44;2034618;29;20723;-71
2022/05/12 03:12:20;;;;;;;25.15;21.42;;;;;;;13.16;100.00;98688.63;2033898;29;20210;-71
2022/05/12 03:13:26;;;;;;;24.23;21.55;;;;;;;13.13;100.00;98698.09;2028469;29;20199;-71
2022/05/12 03:14:26;;;;;;;24.67;21.92;;;;;;;13.09;100.00;98694.47;2034351;29;20584;-71
2022/05/12 03:15:29;;;;;;;26.63;22.93;;;;;;;13.06;100.00;98694.31;2043160;29;20227;-71
2022/05/12 03:16:30;;;;;;;24.02;21.67;;;;;;;13.00;100.00;98691.81;2043478;29;20278;-71
2022/05/12 03:17:35;;;;;;;24.17;21.77;;;;;;;12.96;100.00;98698.16;2042404;29;20217;-71
2022/05/12 03:18:39;;;;;;;24.35;21.88;;;;;;;12.98;100.00;98695.94;2044939;29;20238;-72
2022/05/12 03:19:44;;;;;;;24.70;21.75;;;;;;;12.92;100.00;98697.97;2042268;29;20210;-71
2022/05/12 03:20:45;;;;;;;26.20;22.13;;;;;;;12.92;100.00;98686.50;2043455;29;20225;-71
2022/05/12 03:21:47;;;;;;;26.77;21.40;;;;;;;12.88;100.00;98702.41;2042740;29;20241;-71
2022/05/12 03:22:49;;;;;;;24.23;21.70;;;;;;;12.89;100.00;98698.63;2042323;29;20203;-71
2022/05/12 03:23:50;;;;;;;25.67;22.00;;;;;;;12.87;100.00;98703.53;2043761;29;20199;-71
2022/05/12 03:24:52;;;;;;;27.63;21.83;;;;;;;12.83;100.00;98697.22;2041975;29;20191;-72
2022/05/12 03:25:53;;;;;;;26.15;21.27;;;;;;;12.80;100.00;98695.19;2043289;29;20206;-71
2022/05/12 03:26:55;;;;;;;23.40;20.97;;;;;;;12.80;100.00;98700.53;2035795;29;20307;-71
2022/05/12 03:27:56;;;;;;;22.65;20.65;;;;;;;12.80;100.00;98694.41;2033988;29;20282;-71
2022/05/12 03:28:59;;;;;;;23.42;21.08;;;;;;;12.79;100.00;98698.97;2045349;29;20175;-72
2022/05/12 03:30:00;;;;;;;17.95;16.23;;;;;;;12.88;100.00;98696.28;2041568;29;20234;-72
2022/05/12 03:31:05;;;;;;;23.40;20.07;;;;;;;12.93;100.00;98696.09;2041898;29;20191;-71
2022/05/12 03:32:10;;;;;;;17.40;15.90;;;;;;;13.02;100.00;98696.84;2044968;29;20314;-71
2022/05/12 03:33:12;;;;;;;16.50;15.20;;;;;;;13.19;100.00;98701.34;2033597;29;20589;-71
2022/05/12 03:34:13;;;;;;;18.70;17.17;;;;;;;13.38;100.00;98701.78;2036609;29;20196;-72
2022/05/12 03:35:18;;;;;;;18.63;17.23;;;;;;;13.55;100.00;98698.22;2033462;29;20249;-72
2022/05/12 03:36:21;;;;;;;17.67;16.33;;;;;;;13.78;100.00;98694.13;2022759;29;20238;-71
2022/05/12 03:37:22;;;;;;;18.35;16.95;;;;;;;13.95;100.00;98706.63;2028405;29;20212;-71
2022/05/12 03:38:25;;;;;;;18.77;17.07;;;;;;;14.20;100.00;98702.19;2025992;29;20189;-72
2022/05/12 03:39:26;;;;;;;18.45;16.95;;;;;;;14.37;100.00;98703.94;2036787;29;20191;-72
2022/05/12 03:40:31;;;;;;;18.50;16.90;;;;;;;14.53;100.00;98713.00;2034278;29;20215;-71
2022/05/12 03:41:32;;;;;;;18.48;16.80;;;;;;;14.70;100.00;98707.44;2034410;29;20275;-71
2022/05/12 03:42:34;;;;;;;18.85;17.38;;;;;;;14.92;100.00;98711.63;2035846;29;20306;-71
2022/05/12 03:44:59;;;;;;;19.67;17.63;;;;;;;15.28;100.00;98721.66;2035970;29;20263;-71
2022/05/12 03:46:02;;;;;;;17.75;16.50;;;;;;;15.43;100.00;98720.19;2033832;29;20561;-71
2022/05/12 03:47:03;;;;;;;18.45;16.67;;;;;;;15.62;100.00;98722.34;2034833;29;20228;-71
2022/05/12 03:48:06;;;;;;;18.25;16.80;;;;;;;15.74;100.00;98726.97;2034932;29;20585;-71
2022/05/12 03:49:07;;;;;;;18.05;16.58;;;;;;;15.90;100.00;98722.44;2034381;29;20187;-71
2022/05/12 03:50:11;;;;;;;17.73;16.43;;;;;;;16.06;100.00;98727.91;2026893;29;20204;-71
2022/05/12 03:51:12;;;;;;;18.05;16.65;;;;;;;16.24;100.00;98737.25;2025718;29;20664;-72
2022/05/12 03:52:14;;;;;;;18.47;16.73;;;;;;;16.31;100.00;98734.00;2034588;29;20206;-71
2022/05/12 03:53:15;;;;;;;19.92;18.33;;;;;;;16.37;100.00;98740.72;2035142;29;20273;-71
2022/05/12 03:54:17;;;;;;;19.80;17.90;;;;;;;16.43;100.00;98738.56;2034314;29;20598;-71
2022/05/12 03:55:20;;;;;;;19.70;18.30;;;;;;;16.47;100.00;98736.75;2028692;29;20200;-72
2022/05/12 03:56:26;;;;;;;19.88;18.08;;;;;;;16.54;100.00;98739.66;2026403;29;20646;-71
2022/05/12 03:57:28;;;;;;;20.02;18.08;;;;;;;16.55;100.00;98730.44;2026173;29;20208;-72
2022/05/12 03:58:31;;;;;;;17.90;16.40;;;;;;;16.63;100.00;98748.38;2028706;29;20283;-71
2022/05/12 03:59:33;;;;;;;18.30;16.83;;;;;;;16.69;100.00;98735.47;2025176;29;20295;-72
2022/05/12 04:00:38;;;;;;;22.10;19.83;;;;;;;16.69;100.00;98736.25;2036104;29;20247;-71
2022/05/12 04:01:39;;;;;;;19.42;17.73;;;;;;;16.64;100.00;98721.06;2041065;29;20654;-72
2022/05/12 04:02:42;;;;;;;18.20;16.93;;;;;;;16.62;100.00;98731.41;2026338;29;20204;-71
2022/05/12 04:03:45;;;;;;;18.43;17.13;;;;;;;16.61;100.00;98737.16;2028051;29;20504;-71
2022/05/12 04:04:48;;;;;;;18.70;17.10;;;;;;;16.64;100.00;98739.94;2025763;29;20449;-71
2022/05/12 04:05:49;;;;;;;18.87;17.10;;;;;;;16.65;100.00;98738.03;2028760;29;20492;-72
2022/05/12 04:06:51;;;;;;;18.57;16.93;;;;;;;16.69;100.00;98728.16;2041399;29;20506;-71
2022/05/12 04:07:52;;;;;;;19.13;17.27;;;;;;;16.73;100.00;98737.13;2042264;29;20645;-72
2022/05/12 04:08:54;;;;;;;20.27;18.43;;;;;;;16.74;100.00;98738.69;2044842;29;20482;-72
2022/05/12 04:09:55;;;;;;;20.30;18.50;;;;;;;16.76;100.00;98739.13;2042037;29;20427;-71
2022/05/12 04:10:57;;;;;;;22.87;18.40;;;;;;;16.79;100.00;98741.13;2044678;29;20431;-72
2022/05/12 04:11:59;;;;;;;19.07;17.60;;;;;;;16.86;100.00;98740.53;2042070;29;20195;-71
2022/05/12 04:13:00;;;;;;;19.80;17.83;;;;;;;16.90;100.00;98741.41;2033441;29;20460;-72
2022/05/12 04:14:04;;;;;;;18.50;17.10;;;;;;;16.92;100.00;98739.94;2028520;29;20959;-72
2022/05/12 04:15:06;;;;;;;19.10;17.23;;;;;;;17.00;100.00;98745.50;2033958;29;20491;-71
2022/05/12 04:16:09;;;;;;;18.80;17.17;;;;;;;17.01;100.00;98737.06;2044260;29;20433;-72
2022/05/12 04:17:15;;;;;;;19.07;17.40;;;;;;;17.09;99.97;98740.75;2042427;29;20431;-72
2022/05/12 04:18:17;;;;;;;18.30;16.93;;;;;;;17.13;98.48;98741.63;2042120;29;20429;-72
2022/05/12 04:19:18;;;;;;;19.43;17.50;;;;;;;17.19;98.85;98738.31;2035734;29;20591;-71
2022/05/12 04:20:21;;;;;;;19.13;17.77;;;;;;;17.23;99.04;98738.41;2033737;29;20459;-72
2022/05/12 04:21:22;;;;;;;18.93;17.40;;;;;;;17.26;99.10;98735.00;2042310;29;20227;-72
2022/05/12 04:22:24;;;;;;;18.50;17.07;;;;;;;17.26;99.02;98736.91;2033911;29;20896;-72
2022/05/12 04:23:26;;;;;;;19.20;17.73;;;;;;;17.31;98.66;98740.16;2033744;29;20784;-72
2022/05/12 04:24:28;;;;;;;19.17;17.67;;;;;;;17.36;98.74;98742.56;2034422;29;20443;-72
2022/05/12 04:25:28;;;;;;;19.47;17.80;;;;;;;17.40;98.15;98732.66;2033687;29;20443;-72
2022/05/12 04:26:30;;;;;;;19.17;17.67;;;;;;;17.45;98.30;98740.47;2043061;29;20526;-72
2022/05/12 04:27:34;;;;;;;19.23;17.83;;;;;;;17.48;97.94;98739.00;2043758;29;20218;-71
2022/05/12 04:28:37;;;;;;;19.80;18.20;;;;;;;17.52;98.05;98734.47;2041213;29;20438;-71
2022/05/12 04:29:37;;;;;;;18.50;17.20;;;;;;;17.57;98.14;98730.75;2042193;29;20568;-72
2022/05/12 04:30:40;;;;;;;19.83;18.20;;;;;;;17.59;97.54;98740.03;2033351;29;20507;-72
2022/05/12 04:31:42;;;;;;;19.23;17.53;;;;;;;17.62;97.63;98738.53;2033901;29;20440;-72
2022/05/12 04:32:44;;;;;;;21.10;17.20;;;;;;;17.66;97.88;98734.03;2042238;29;20434;-72
2022/05/12 04:35:12;;;;;;;18.87;17.23;;;;;;;17.72;97.77;98740.75;2043144;29;20502;-72
2022/05/12 04:36:13;;;;;;;18.43;16.90;;;;;;;17.71;98.28;98736.47;2041581;29;20447;-72
2022/05/12 04:37:17;;;;;;;18.93;17.40;;;;;;;17.74;97.37;98735.78;2043931;29;20431;-72
2022/05/12 04:38:20;;;;;;;18.20;16.90;;;;;;;17.76;97.76;98736.22;2041932;29;20537;-72
2022/05/12 04:39:22;;;;;;;18.37;16.73;;;;;;;17.82;97.55;98742.91;2041876;29;20427;-72
2022/05/12 04:40:25;;;;;;;19.13;17.43;;;;;;;17.87;97.28;98737.22;2044116;29;20504;-72
2022/05/12 04:41:32;;;;;;;19.13;17.23;;;;;;;17.89;97.08;98740.34;2041759;29;20434;-71
2022/05/12 04:42:33;;;;;;;19.30;17.30;;;;;;;17.92;97.08;98741.59;2044248;29;20442;-72
2022/05/12 04:43:35;;;;;;;18.47;16.90;;;;;;;17.97;97.01;98738.59;2041889;29;20506;-72
2022/05/12 04:44:36;;;;;;;17.63;16.13;;;;;;;17.99;97.27;98744.44;2033346;29;20447;-72
2022/05/12 04:45:38;;;;;;;18.07;16.70;;;;;;;18.03;97.47;98746.06;2028028;29;20445;-72
2022/05/12 04:46:40;;;;;;;18.03;16.50;;;;;;;18.06;97.56;98739.19;2033572;29;20834;-72
2022/05/12 04:47:43;;;;;;;18.47;16.83;;;;;;;18.11;98.22;98733.50;2043011;29;20455;-72